Genoa, Ohio
Current Conditions -  °F | °C
As of 7:53 PM on Sunday 23 Nov 2014 (Local Time) from KTDZ Reporting Station
Moderate Rain Moderate Rain  
Wind Chill: 52°   Ceiling: 8500
Heat Index: 52°   Visibility: 6mi
Dew Point: 47°   Wind: 13mph
Humidity: 83%   Direction: 120°ESE
Pressure: 29.49"   Gusts: NA
Location:  41.52°N, 83.36°W
Report Text: KTDZ 240053Z AUTO 12011KT 6SM RA SCT060 OVC085 11/08 A2949 RMK AO2 SLP987 P0004 T01110083 TSNO
Loading
Personal Weather Stations






























Interactive Weather Map New forecast layout! Learn more

10-Day Weather Forecast

Advertisements
Track Severe Weather on mobile